sensor_id;sensor_type;location;lat;lon;timestamp;P1;durP1;ratioP1;P2;durP2;ratioP2
21503;SDS011;10913;51.992;9.228;2023-02-28T00:01:11;6.75;;;5.10;;
21503;SDS011;10913;51.992;9.228;2023-02-28T00:03:38;7.13;;;5.35;;
21503;SDS011;10913;51.992;9.228;2023-02-28T00:06:04;5.90;;;4.78;;
21503;SDS011;10913;51.992;9.228;2023-02-28T00:08:30;4.72;;;3.47;;
21503;SDS011;10913;51.992;9.228;2023-02-28T00:10:56;5.47;;;3.60;;
21503;SDS011;10913;51.992;9.228;2023-02-28T00:13:26;4.38;;;3.38;;
21503;SDS011;10913;51.992;9.228;2023-02-28T00:15:58;5.35;;;3.92;;
21503;SDS011;10913;51.992;9.228;2023-02-28T00:18:27;4.43;;;3.35;;
21503;SDS011;10913;51.992;9.228;2023-02-28T00:20:53;4.55;;;3.20;;
21503;SDS011;10913;51.992;9.228;2023-02-28T00:23:18;4.53;;;3.20;;
21503;SDS011;10913;51.992;9.228;2023-02-28T00:25:43;4.45;;;3.00;;
21503;SDS011;10913;51.992;9.228;2023-02-28T00:28:09;3.45;;;2.70;;
21503;SDS011;10913;51.992;9.228;2023-02-28T00:30:35;3.22;;;2.70;;
21503;SDS011;10913;51.992;9.228;2023-02-28T00:33:00;3.45;;;2.63;;
21503;SDS011;10913;51.992;9.228;2023-02-28T00:35:25;5.10;;;2.83;;
21503;SDS011;10913;51.992;9.228;2023-02-28T00:37:51;3.88;;;3.00;;
21503;SDS011;10913;51.992;9.228;2023-02-28T00:40:16;3.83;;;2.50;;
21503;SDS011;10913;51.992;9.228;2023-02-28T00:42:42;2.83;;;2.28;;
21503;SDS011;10913;51.992;9.228;2023-02-28T00:45:07;3.25;;;2.50;;
21503;SDS011;10913;51.992;9.228;2023-02-28T00:47:33;3.40;;;2.40;;
21503;SDS011;10913;51.992;9.228;2023-02-28T00:49:59;3.20;;;2.30;;
21503;SDS011;10913;51.992;9.228;2023-02-28T00:52:25;4.07;;;2.60;;
21503;SDS011;10913;51.992;9.228;2023-02-28T00:54:50;2.67;;;1.98;;
21503;SDS011;10913;51.992;9.228;2023-02-28T00:57:15;2.35;;;1.98;;
21503;SDS011;10913;51.992;9.228;2023-02-28T00:59:41;2.58;;;2.08;;
21503;SDS011;10913;51.992;9.228;2023-02-28T01:02:06;2.35;;;1.85;;
21503;SDS011;10913;51.992;9.228;2023-02-28T01:04:32;3.08;;;2.03;;
21503;SDS011;10913;51.992;9.228;2023-02-28T01:06:57;3.15;;;1.83;;
21503;SDS011;10913;51.992;9.228;2023-02-28T01:09:22;3.65;;;1.85;;
21503;SDS011;10913;51.992;9.228;2023-02-28T01:11:48;2.80;;;2.08;;
21503;SDS011;10913;51.992;9.228;2023-02-28T01:14:14;2.20;;;1.90;;
21503;SDS011;10913;51.992;9.228;2023-02-28T01:16:40;2.40;;;1.92;;
21503;SDS011;10913;51.992;9.228;2023-02-28T01:19:06;2.10;;;1.90;;
21503;SDS011;10913;51.992;9.228;2023-02-28T01:21:31;2.28;;;1.70;;
21503;SDS011;10913;51.992;9.228;2023-02-28T01:23:57;2.45;;;1.85;;
21503;SDS011;10913;51.992;9.228;2023-02-28T01:26:22;2.10;;;1.90;;
21503;SDS011;10913;51.992;9.228;2023-02-28T01:28:49;1.83;;;1.60;;
21503;SDS011;10913;51.992;9.228;2023-02-28T01:31:15;1.67;;;1.50;;
21503;SDS011;10913;51.992;9.228;2023-02-28T01:33:41;2.15;;;1.63;;
21503;SDS011;10913;51.992;9.228;2023-02-28T01:36:09;2.13;;;1.70;;
21503;SDS011;10913;51.992;9.228;2023-02-28T01:38:37;1.98;;;1.70;;
21503;SDS011;10913;51.992;9.228;2023-02-28T01:41:04;2.03;;;1.58;;
21503;SDS011;10913;51.992;9.228;2023-02-28T01:43:30;1.88;;;1.52;;
21503;SDS011;10913;51.992;9.228;2023-02-28T01:46:16;2.40;;;1.83;;
21503;SDS011;10913;51.992;9.228;2023-02-28T01:48:42;2.28;;;1.70;;
21503;SDS011;10913;51.992;9.228;2023-02-28T01:51:17;3.50;;;1.70;;
21503;SDS011;10913;51.992;9.228;2023-02-28T01:53:54;1.50;;;1.40;;
21503;SDS011;10913;51.992;9.228;2023-02-28T01:56:26;4.07;;;1.90;;
21503;SDS011;10913;51.992;9.228;2023-02-28T01:58:55;1.70;;;1.60;;
21503;SDS011;10913;51.992;9.228;2023-02-28T02:01:21;1.85;;;1.50;;
21503;SDS011;10913;51.992;9.228;2023-02-28T02:03:48;2.45;;;1.70;;
21503;SDS011;10913;51.992;9.228;2023-02-28T02:06:22;2.57;;;1.77;;
21503;SDS011;10913;51.992;9.228;2023-02-28T02:08:50;2.15;;;1.50;;
21503;SDS011;10913;51.992;9.228;2023-02-28T02:11:17;2.65;;;1.65;;
21503;SDS011;10913;51.992;9.228;2023-02-28T02:19:37;3.00;;;1.70;;
21503;SDS011;10913;51.992;9.228;2023-02-28T02:22:02;3.17;;;1.88;;
21503;SDS011;10913;51.992;9.228;2023-02-28T02:27:46;1.98;;;1.67;;
21503;SDS011;10913;51.992;9.228;2023-02-28T02:33:29;1.85;;;1.60;;
21503;SDS011;10913;51.992;9.228;2023-02-28T02:36:28;1.70;;;1.52;;
21503;SDS011;10913;51.992;9.228;2023-02-28T02:39:06;2.42;;;1.70;;
21503;SDS011;10913;51.992;9.228;2023-02-28T02:41:46;2.70;;;1.40;;
21503;SDS011;10913;51.992;9.228;2023-02-28T02:44:17;2.33;;;1.50;;
21503;SDS011;10913;51.992;9.228;2023-02-28T02:46:44;3.05;;;1.70;;
21503;SDS011;10913;51.992;9.228;2023-02-28T02:49:22;2.20;;;1.77;;
21503;SDS011;10913;51.992;9.228;2023-02-28T02:51:51;1.73;;;1.40;;
21503;SDS011;10913;51.992;9.228;2023-02-28T02:54:24;2.00;;;1.73;;
21503;SDS011;10913;51.992;9.228;2023-02-28T02:56:53;3.67;;;1.65;;
21503;SDS011;10913;51.992;9.228;2023-02-28T02:59:24;1.85;;;1.70;;
21503;SDS011;10913;51.992;9.228;2023-02-28T03:01:53;1.90;;;1.70;;
21503;SDS011;10913;51.992;9.228;2023-02-28T03:04:22;1.88;;;1.70;;
21503;SDS011;10913;51.992;9.228;2023-02-28T03:06:50;2.45;;;1.50;;
21503;SDS011;10913;51.992;9.228;2023-02-28T03:09:22;1.65;;;1.50;;
21503;SDS011;10913;51.992;9.228;2023-02-28T03:11:48;2.35;;;1.65;;
21503;SDS011;10913;51.992;9.228;2023-02-28T03:36:17;2.42;;;1.70;;
21503;SDS011;10913;51.992;9.228;2023-02-28T03:41:21;2.70;;;1.70;;
21503;SDS011;10913;51.992;9.228;2023-02-28T03:43:50;1.90;;;1.70;;
21503;SDS011;10913;51.992;9.228;2023-02-28T03:46:21;1.70;;;1.60;;
21503;SDS011;10913;51.992;9.228;2023-02-28T03:48:55;1.67;;;1.58;;
21503;SDS011;10913;51.992;9.228;2023-02-28T03:51:22;1.63;;;1.50;;
21503;SDS011;10913;51.992;9.228;2023-02-28T03:53:59;2.30;;;1.70;;
21503;SDS011;10913;51.992;9.228;2023-02-28T03:59:04;2.45;;;1.80;;
21503;SDS011;10913;51.992;9.228;2023-02-28T04:01:37;1.95;;;1.75;;
21503;SDS011;10913;51.992;9.228;2023-02-28T04:04:06;2.42;;;1.73;;
21503;SDS011;10913;51.992;9.228;2023-02-28T04:06:33;1.83;;;1.70;;
21503;SDS011;10913;51.992;9.228;2023-02-28T04:08:59;1.98;;;1.70;;
21503;SDS011;10913;51.992;9.228;2023-02-28T04:14:08;2.17;;;1.92;;
21503;SDS011;10913;51.992;9.228;2023-02-28T04:16:35;1.83;;;1.67;;
21503;SDS011;10913;51.992;9.228;2023-02-28T04:19:02;2.05;;;1.77;;
21503;SDS011;10913;51.992;9.228;2023-02-28T04:21:30;2.00;;;1.80;;
21503;SDS011;10913;51.992;9.228;2023-02-28T04:24:00;2.33;;;1.80;;
21503;SDS011;10913;51.992;9.228;2023-02-28T04:26:32;2.55;;;2.10;;
21503;SDS011;10913;51.992;9.228;2023-02-28T04:28:59;2.25;;;2.08;;
21503;SDS011;10913;51.992;9.228;2023-02-28T04:31:25;3.00;;;2.00;;
21503;SDS011;10913;51.992;9.228;2023-02-28T04:33:51;2.17;;;1.80;;
21503;SDS011;10913;51.992;9.228;2023-02-28T04:36:17;2.05;;;1.85;;
21503;SDS011;10913;51.992;9.228;2023-02-28T04:38:43;3.97;;;2.10;;
21503;SDS011;10913;51.992;9.228;2023-02-28T04:41:09;2.53;;;2.10;;
21503;SDS011;10913;51.992;9.228;2023-02-28T04:43:35;2.85;;;2.20;;
21503;SDS011;10913;51.992;9.228;2023-02-28T04:46:01;2.60;;;2.10;;
21503;SDS011;10913;51.992;9.228;2023-02-28T04:48:28;2.83;;;2.30;;
21503;SDS011;10913;51.992;9.228;2023-02-28T04:50:59;3.70;;;2.38;;
21503;SDS011;10913;51.992;9.228;2023-02-28T04:53:25;2.20;;;2.00;;
21503;SDS011;10913;51.992;9.228;2023-02-28T04:55:52;2.90;;;2.30;;
21503;SDS011;10913;51.992;9.228;2023-02-28T04:58:17;3.25;;;2.63;;
21503;SDS011;10913;51.992;9.228;2023-02-28T05:00:42;4.00;;;2.65;;
21503;SDS011;10913;51.992;9.228;2023-02-28T05:03:08;2.60;;;2.40;;
21503;SDS011;10913;51.992;9.228;2023-02-28T05:05:34;2.38;;;2.10;;
21503;SDS011;10913;51.992;9.228;2023-02-28T05:08:00;2.47;;;2.10;;
21503;SDS011;10913;51.992;9.228;2023-02-28T05:10:25;4.30;;;2.20;;
21503;SDS011;10913;51.992;9.228;2023-02-28T05:12:52;3.35;;;2.38;;
21503;SDS011;10913;51.992;9.228;2023-02-28T05:15:17;3.50;;;2.50;;
21503;SDS011;10913;51.992;9.228;2023-02-28T05:17:42;3.05;;;2.47;;
21503;SDS011;10913;51.992;9.228;2023-02-28T05:20:08;3.13;;;2.53;;
21503;SDS011;10913;51.992;9.228;2023-02-28T05:22:36;5.38;;;3.05;;
21503;SDS011;10913;51.992;9.228;2023-02-28T05:25:02;3.85;;;3.13;;
21503;SDS011;10913;51.992;9.228;2023-02-28T05:27:29;3.95;;;2.70;;
21503;SDS011;10913;51.992;9.228;2023-02-28T05:29:55;3.53;;;2.63;;
21503;SDS011;10913;51.992;9.228;2023-02-28T05:32:21;3.20;;;2.60;;
21503;SDS011;10913;51.992;9.228;2023-02-28T05:34:46;2.53;;;2.33;;
21503;SDS011;10913;51.992;9.228;2023-02-28T05:37:12;3.72;;;2.45;;
21503;SDS011;10913;51.992;9.228;2023-02-28T05:39:38;3.20;;;2.28;;
21503;SDS011;10913;51.992;9.228;2023-02-28T05:42:03;3.17;;;2.55;;
21503;SDS011;10913;51.992;9.228;2023-02-28T05:44:29;2.58;;;2.30;;
21503;SDS011;10913;51.992;9.228;2023-02-28T05:46:54;3.70;;;2.58;;
21503;SDS011;10913;51.992;9.228;2023-02-28T05:49:20;2.60;;;2.40;;
21503;SDS011;10913;51.992;9.228;2023-02-28T05:51:45;3.92;;;2.78;;
21503;SDS011;10913;51.992;9.228;2023-02-28T05:54:10;3.15;;;2.30;;
21503;SDS011;10913;51.992;9.228;2023-02-28T05:56:36;3.80;;;2.53;;
21503;SDS011;10913;51.992;9.228;2023-02-28T05:59:04;3.08;;;2.60;;
21503;SDS011;10913;51.992;9.228;2023-02-28T06:01:42;2.90;;;2.50;;
21503;SDS011;10913;51.992;9.228;2023-02-28T06:04:17;3.00;;;2.70;;
21503;SDS011;10913;51.992;9.228;2023-02-28T06:06:45;3.20;;;2.90;;
21503;SDS011;10913;51.992;9.228;2023-02-28T06:09:11;3.47;;;3.15;;
21503;SDS011;10913;51.992;9.228;2023-02-28T06:11:36;4.05;;;3.00;;
21503;SDS011;10913;51.992;9.228;2023-02-28T06:14:02;3.05;;;2.75;;
21503;SDS011;10913;51.992;9.228;2023-02-28T06:16:29;3.17;;;2.50;;
21503;SDS011;10913;51.992;9.228;2023-02-28T06:18:59;3.90;;;2.78;;
21503;SDS011;10913;51.992;9.228;2023-02-28T06:21:27;4.00;;;2.95;;
21503;SDS011;10913;51.992;9.228;2023-02-28T06:23:53;2.47;;;2.22;;
21503;SDS011;10913;51.992;9.228;2023-02-28T06:26:20;2.60;;;2.40;;
21503;SDS011;10913;51.992;9.228;2023-02-28T06:28:46;2.60;;;2.35;;
21503;SDS011;10913;51.992;9.228;2023-02-28T06:31:12;2.80;;;2.55;;
21503;SDS011;10913;51.992;9.228;2023-02-28T06:33:40;2.88;;;2.63;;
21503;SDS011;10913;51.992;9.228;2023-02-28T06:36:06;3.63;;;2.50;;
21503;SDS011;10913;51.992;9.228;2023-02-28T06:38:32;3.30;;;2.63;;
21503;SDS011;10913;51.992;9.228;2023-02-28T06:40:59;3.97;;;2.80;;
21503;SDS011;10913;51.992;9.228;2023-02-28T06:43:25;3.20;;;2.53;;
21503;SDS011;10913;51.992;9.228;2023-02-28T06:45:56;3.72;;;2.50;;
21503;SDS011;10913;51.992;9.228;2023-02-28T06:48:23;2.67;;;2.30;;
21503;SDS011;10913;51.992;9.228;2023-02-28T06:50:49;2.35;;;2.08;;
21503;SDS011;10913;51.992;9.228;2023-02-28T06:53:14;3.83;;;2.20;;
21503;SDS011;10913;51.992;9.228;2023-02-28T06:55:40;2.45;;;2.25;;
21503;SDS011;10913;51.992;9.228;2023-02-28T06:58:06;3.08;;;1.92;;
21503;SDS011;10913;51.992;9.228;2023-02-28T07:00:40;3.28;;;2.20;;
21503;SDS011;10913;51.992;9.228;2023-02-28T07:03:07;2.80;;;2.40;;
21503;SDS011;10913;51.992;9.228;2023-02-28T07:08:00;5.60;;;3.70;;
21503;SDS011;10913;51.992;9.228;2023-02-28T07:10:26;5.55;;;3.63;;
21503;SDS011;10913;51.992;9.228;2023-02-28T07:12:52;6.10;;;3.80;;
21503;SDS011;10913;51.992;9.228;2023-02-28T07:15:17;3.97;;;2.97;;
21503;SDS011;10913;51.992;9.228;2023-02-28T07:17:42;2.20;;;2.00;;
21503;SDS011;10913;51.992;9.228;2023-02-28T07:20:08;3.70;;;2.40;;
21503;SDS011;10913;51.992;9.228;2023-02-28T07:22:34;4.45;;;2.30;;
21503;SDS011;10913;51.992;9.228;2023-02-28T07:25:03;4.35;;;2.88;;
21503;SDS011;10913;51.992;9.228;2023-02-28T07:27:29;3.90;;;2.75;;
21503;SDS011;10913;51.992;9.228;2023-02-28T07:29:55;3.97;;;2.90;;
21503;SDS011;10913;51.992;9.228;2023-02-28T07:32:20;3.00;;;2.58;;
21503;SDS011;10913;51.992;9.228;2023-02-28T07:34:45;4.30;;;3.03;;
21503;SDS011;10913;51.992;9.228;2023-02-28T07:37:11;4.57;;;3.58;;
21503;SDS011;10913;51.992;9.228;2023-02-28T07:39:36;5.10;;;3.83;;
21503;SDS011;10913;51.992;9.228;2023-02-28T07:42:05;4.05;;;3.42;;
21503;SDS011;10913;51.992;9.228;2023-02-28T07:44:34;5.57;;;3.63;;
21503;SDS011;10913;51.992;9.228;2023-02-28T07:47:00;5.15;;;4.38;;
21503;SDS011;10913;51.992;9.228;2023-02-28T07:49:25;6.43;;;4.90;;
21503;SDS011;10913;51.992;9.228;2023-02-28T07:51:51;8.43;;;5.97;;
21503;SDS011;10913;51.992;9.228;2023-02-28T07:54:16;9.80;;;7.10;;
21503;SDS011;10913;51.992;9.228;2023-02-28T07:56:41;9.48;;;6.88;;
21503;SDS011;10913;51.992;9.228;2023-02-28T07:59:07;10.70;;;7.43;;
21503;SDS011;10913;51.992;9.228;2023-02-28T08:01:32;8.02;;;5.80;;
21503;SDS011;10913;51.992;9.228;2023-02-28T08:03:57;6.97;;;5.32;;
21503;SDS011;10913;51.992;9.228;2023-02-28T08:06:24;5.85;;;4.45;;
21503;SDS011;10913;51.992;9.228;2023-02-28T08:08:51;5.15;;;4.30;;
21503;SDS011;10913;51.992;9.228;2023-02-28T08:11:17;4.95;;;4.28;;
21503;SDS011;10913;51.992;9.228;2023-02-28T08:13:43;3.92;;;3.40;;
21503;SDS011;10913;51.992;9.228;2023-02-28T08:16:10;4.05;;;3.20;;
21503;SDS011;10913;51.992;9.228;2023-02-28T08:18:36;3.47;;;2.85;;
21503;SDS011;10913;51.992;9.228;2023-02-28T08:21:08;2.65;;;2.45;;
21503;SDS011;10913;51.992;9.228;2023-02-28T08:23:34;4.70;;;2.50;;
21503;SDS011;10913;51.992;9.228;2023-02-28T08:26:00;2.75;;;2.35;;
21503;SDS011;10913;51.992;9.228;2023-02-28T08:28:25;3.33;;;2.40;;
21503;SDS011;10913;51.992;9.228;2023-02-28T08:30:50;2.90;;;2.60;;
21503;SDS011;10913;51.992;9.228;2023-02-28T08:33:16;3.20;;;2.83;;
21503;SDS011;10913;51.992;9.228;2023-02-28T08:35:41;4.30;;;3.20;;
21503;SDS011;10913;51.992;9.228;2023-02-28T08:38:06;4.50;;;3.15;;
21503;SDS011;10913;51.992;9.228;2023-02-28T08:40:32;3.67;;;3.25;;
21503;SDS011;10913;51.992;9.228;2023-02-28T08:42:57;6.65;;;5.20;;
21503;SDS011;10913;51.992;9.228;2023-02-28T08:45:23;9.25;;;7.07;;
21503;SDS011;10913;51.992;9.228;2023-02-28T08:47:48;6.80;;;6.10;;
21503;SDS011;10913;51.992;9.228;2023-02-28T08:50:14;7.28;;;5.80;;
21503;SDS011;10913;51.992;9.228;2023-02-28T08:52:41;5.55;;;4.28;;
21503;SDS011;10913;51.992;9.228;2023-02-28T08:55:08;5.13;;;4.45;;
21503;SDS011;10913;51.992;9.228;2023-02-28T08:57:34;6.47;;;4.10;;
21503;SDS011;10913;51.992;9.228;2023-02-28T09:00:00;5.57;;;4.25;;
21503;SDS011;10913;51.992;9.228;2023-02-28T09:02:29;7.13;;;4.70;;
21503;SDS011;10913;51.992;9.228;2023-02-28T09:04:56;8.30;;;5.15;;
21503;SDS011;10913;51.992;9.228;2023-02-28T09:07:21;7.07;;;4.63;;
21503;SDS011;10913;51.992;9.228;2023-02-28T09:09:47;6.50;;;5.00;;
21503;SDS011;10913;51.992;9.228;2023-02-28T09:12:19;7.40;;;5.72;;
21503;SDS011;10913;51.992;9.228;2023-02-28T09:14:48;6.68;;;4.40;;
21503;SDS011;10913;51.992;9.228;2023-02-28T09:17:14;4.80;;;3.83;;
21503;SDS011;10913;51.992;9.228;2023-02-28T09:19:40;4.57;;;4.05;;
21503;SDS011;10913;51.992;9.228;2023-02-28T09:22:05;6.03;;;4.60;;
21503;SDS011;10913;51.992;9.228;2023-02-28T09:24:30;6.53;;;4.88;;
21503;SDS011;10913;51.992;9.228;2023-02-28T09:26:56;7.07;;;5.35;;
21503;SDS011;10913;51.992;9.228;2023-02-28T09:29:22;6.60;;;5.07;;
21503;SDS011;10913;51.992;9.228;2023-02-28T09:31:47;6.18;;;5.10;;
21503;SDS011;10913;51.992;9.228;2023-02-28T09:34:13;7.20;;;4.60;;
21503;SDS011;10913;51.992;9.228;2023-02-28T09:36:38;6.38;;;4.38;;
21503;SDS011;10913;51.992;9.228;2023-02-28T09:39:04;8.93;;;4.97;;
21503;SDS011;10913;51.992;9.228;2023-02-28T09:41:32;8.82;;;4.70;;
21503;SDS011;10913;51.992;9.228;2023-02-28T09:44:04;5.97;;;3.63;;
21503;SDS011;10913;51.992;9.228;2023-02-28T09:46:42;8.30;;;4.10;;
21503;SDS011;10913;51.992;9.228;2023-02-28T09:49:14;7.40;;;3.97;;
21503;SDS011;10913;51.992;9.228;2023-02-28T09:54:18;5.05;;;3.28;;
21503;SDS011;10913;51.992;9.228;2023-02-28T09:56:51;5.25;;;2.85;;
21503;SDS011;10913;51.992;9.228;2023-02-28T10:05:08;3.58;;;2.47;;
21503;SDS011;10913;51.992;9.228;2023-02-28T10:10:38;5.38;;;2.83;;
21503;SDS011;10913;51.992;9.228;2023-02-28T10:18:36;5.00;;;2.67;;
21503;SDS011;10913;51.992;9.228;2023-02-28T10:21:15;3.42;;;2.30;;
21503;SDS011;10913;51.992;9.228;2023-02-28T10:23:57;3.95;;;2.70;;
21503;SDS011;10913;51.992;9.228;2023-02-28T10:26:28;3.47;;;2.78;;
21503;SDS011;10913;51.992;9.228;2023-02-28T10:28:56;3.17;;;2.50;;
21503;SDS011;10913;51.992;9.228;2023-02-28T10:31:21;3.13;;;2.47;;
21503;SDS011;10913;51.992;9.228;2023-02-28T10:33:47;2.58;;;2.20;;
21503;SDS011;10913;51.992;9.228;2023-02-28T10:36:16;2.65;;;2.00;;
21503;SDS011;10913;51.992;9.228;2023-02-28T10:38:45;4.07;;;2.47;;
21503;SDS011;10913;51.992;9.228;2023-02-28T10:41:12;4.53;;;2.22;;
21503;SDS011;10913;51.992;9.228;2023-02-28T10:43:51;3.83;;;2.40;;
21503;SDS011;10913;51.992;9.228;2023-02-28T10:46:18;3.47;;;2.28;;
21503;SDS011;10913;51.992;9.228;2023-02-28T10:49:13;3.93;;;2.60;;
21503;SDS011;10913;51.992;9.228;2023-02-28T10:51:45;4.00;;;2.42;;
21503;SDS011;10913;51.992;9.228;2023-02-28T10:54:45;3.00;;;2.22;;
21503;SDS011;10913;51.992;9.228;2023-02-28T10:57:08;3.95;;;2.65;;
21503;SDS011;10913;51.992;9.228;2023-02-28T10:59:40;4.10;;;2.80;;
21503;SDS011;10913;51.992;9.228;2023-02-28T11:05:02;3.50;;;2.60;;
21503;SDS011;10913;51.992;9.228;2023-02-28T11:07:51;2.92;;;2.28;;
21503;SDS011;10913;51.992;9.228;2023-02-28T11:10:19;4.30;;;2.45;;
21503;SDS011;10913;51.992;9.228;2023-02-28T11:12:47;2.25;;;1.90;;
21503;SDS011;10913;51.992;9.228;2023-02-28T11:15:32;3.30;;;2.30;;
21503;SDS011;10913;51.992;9.228;2023-02-28T11:20:37;2.58;;;2.38;;
21503;SDS011;10913;51.992;9.228;2023-02-28T11:23:04;3.88;;;2.83;;
21503;SDS011;10913;51.992;9.228;2023-02-28T11:25:37;4.72;;;3.25;;
21503;SDS011;10913;51.992;9.228;2023-02-28T11:28:04;3.70;;;2.50;;
21503;SDS011;10913;51.992;9.228;2023-02-28T11:30:49;3.20;;;2.45;;
21503;SDS011;10913;51.992;9.228;2023-02-28T11:33:46;3.65;;;2.78;;
21503;SDS011;10913;51.992;9.228;2023-02-28T11:38:43;2.50;;;2.17;;
21503;SDS011;10913;51.992;9.228;2023-02-28T11:47:06;4.20;;;3.58;;
21503;SDS011;10913;51.992;9.228;2023-02-28T11:52:35;5.13;;;3.65;;
21503;SDS011;10913;51.992;9.228;2023-02-28T11:57:35;4.45;;;3.55;;
21503;SDS011;10913;51.992;9.228;2023-02-28T12:08:42;3.15;;;2.80;;
21503;SDS011;10913;51.992;9.228;2023-02-28T12:11:29;4.53;;;2.50;;
21503;SDS011;10913;51.992;9.228;2023-02-28T12:19:26;3.00;;;2.30;;
21503;SDS011;10913;51.992;9.228;2023-02-28T12:27:32;3.05;;;2.10;;
21503;SDS011;10913;51.992;9.228;2023-02-28T12:30:13;3.08;;;2.78;;
21503;SDS011;10913;51.992;9.228;2023-02-28T12:32:45;4.40;;;2.70;;
21503;SDS011;10913;51.992;9.228;2023-02-28T12:35:16;4.93;;;2.63;;
21503;SDS011;10913;51.992;9.228;2023-02-28T12:37:49;2.95;;;2.28;;
21503;SDS011;10913;51.992;9.228;2023-02-28T12:40:33;3.28;;;2.47;;
21503;SDS011;10913;51.992;9.228;2023-02-28T12:43:16;2.95;;;2.63;;
21503;SDS011;10913;51.992;9.228;2023-02-28T12:45:50;4.22;;;2.58;;
21503;SDS011;10913;51.992;9.228;2023-02-28T12:48:30;2.50;;;2.30;;
21503;SDS011;10913;51.992;9.228;2023-02-28T12:51:02;4.75;;;2.63;;
21503;SDS011;10913;51.992;9.228;2023-02-28T12:59:25;3.20;;;2.47;;
21503;SDS011;10913;51.992;9.228;2023-02-28T13:10:00;8.50;;;4.00;;
21503;SDS011;10913;51.992;9.228;2023-02-28T13:12:29;6.50;;;4.07;;
21503;SDS011;10913;51.992;9.228;2023-02-28T13:17:56;9.40;;;4.05;;
21503;SDS011;10913;51.992;9.228;2023-02-28T13:20:31;4.88;;;2.72;;
21503;SDS011;10913;51.992;9.228;2023-02-28T13:23:00;3.75;;;2.88;;
21503;SDS011;10913;51.992;9.228;2023-02-28T13:27:59;3.60;;;2.85;;
21503;SDS011;10913;51.992;9.228;2023-02-28T13:36:00;4.90;;;3.55;;
21503;SDS011;10913;51.992;9.228;2023-02-28T13:38:44;2.55;;;2.10;;
21503;SDS011;10913;51.992;9.228;2023-02-28T13:51:51;3.05;;;2.80;;
21503;SDS011;10913;51.992;9.228;2023-02-28T13:59:58;4.57;;;3.10;;
21503;SDS011;10913;51.992;9.228;2023-02-28T14:02:55;5.75;;;3.80;;
21503;SDS011;10913;51.992;9.228;2023-02-28T14:05:33;4.53;;;3.63;;
21503;SDS011;10913;51.992;9.228;2023-02-28T14:08:16;5.15;;;4.63;;
21503;SDS011;10913;51.992;9.228;2023-02-28T14:10:46;6.43;;;5.13;;
21503;SDS011;10913;51.992;9.228;2023-02-28T14:16:23;15.00;;;9.60;;
21503;SDS011;10913;51.992;9.228;2023-02-28T14:18:58;4.53;;;3.40;;
21503;SDS011;10913;51.992;9.228;2023-02-28T14:21:33;15.45;;;13.85;;
21503;SDS011;10913;51.992;9.228;2023-02-28T14:31:59;4.97;;;4.50;;
21503;SDS011;10913;51.992;9.228;2023-02-28T14:37:02;3.67;;;2.92;;
21503;SDS011;10913;51.992;9.228;2023-02-28T14:39:29;4.13;;;3.13;;
21503;SDS011;10913;51.992;9.228;2023-02-28T14:41:57;4.07;;;2.60;;
21503;SDS011;10913;51.992;9.228;2023-02-28T14:44:29;4.45;;;3.30;;
21503;SDS011;10913;51.992;9.228;2023-02-28T14:46:56;4.25;;;3.42;;
21503;SDS011;10913;51.992;9.228;2023-02-28T14:49:27;5.00;;;3.67;;
21503;SDS011;10913;51.992;9.228;2023-02-28T14:52:01;3.47;;;2.53;;
21503;SDS011;10913;51.992;9.228;2023-02-28T14:54:54;5.38;;;3.30;;
21503;SDS011;10913;51.992;9.228;2023-02-28T14:57:23;3.08;;;2.67;;
21503;SDS011;10913;51.992;9.228;2023-02-28T15:02:35;3.90;;;3.20;;
21503;SDS011;10913;51.992;9.228;2023-02-28T15:05:26;3.63;;;2.70;;
21503;SDS011;10913;51.992;9.228;2023-02-28T15:10:30;6.20;;;3.10;;
21503;SDS011;10913;51.992;9.228;2023-02-28T15:13:05;4.45;;;3.08;;
21503;SDS011;10913;51.992;9.228;2023-02-28T15:15:45;3.80;;;2.95;;
21503;SDS011;10913;51.992;9.228;2023-02-28T15:18:33;3.83;;;2.90;;
21503;SDS011;10913;51.992;9.228;2023-02-28T15:21:02;3.00;;;2.70;;
21503;SDS011;10913;51.992;9.228;2023-02-28T15:23:32;4.05;;;3.25;;
21503;SDS011;10913;51.992;9.228;2023-02-28T15:26:01;3.25;;;2.95;;
21503;SDS011;10913;51.992;9.228;2023-02-28T15:28:27;4.53;;;2.80;;
21503;SDS011;10913;51.992;9.228;2023-02-28T15:30:57;2.90;;;2.60;;
21503;SDS011;10913;51.992;9.228;2023-02-28T15:33:25;4.50;;;2.60;;
21503;SDS011;10913;51.992;9.228;2023-02-28T15:36:05;4.75;;;3.67;;
21503;SDS011;10913;51.992;9.228;2023-02-28T15:38:36;4.55;;;4.15;;
21503;SDS011;10913;51.992;9.228;2023-02-28T15:41:02;4.28;;;2.78;;
21503;SDS011;10913;51.992;9.228;2023-02-28T15:43:34;4.07;;;3.00;;
21503;SDS011;10913;51.992;9.228;2023-02-28T15:46:11;3.60;;;3.08;;
21503;SDS011;10913;51.992;9.228;2023-02-28T15:48:50;2.75;;;2.55;;
21503;SDS011;10913;51.992;9.228;2023-02-28T15:51:18;2.88;;;2.55;;
21503;SDS011;10913;51.992;9.228;2023-02-28T15:56:21;3.78;;;3.47;;
21503;SDS011;10913;51.992;9.228;2023-02-28T15:58:50;3.97;;;2.55;;
21503;SDS011;10913;51.992;9.228;2023-02-28T16:01:33;4.13;;;3.30;;
21503;SDS011;10913;51.992;9.228;2023-02-28T16:04:00;4.05;;;3.70;;
21503;SDS011;10913;51.992;9.228;2023-02-28T16:06:36;5.55;;;4.95;;
21503;SDS011;10913;51.992;9.228;2023-02-28T16:09:05;5.15;;;4.65;;
21503;SDS011;10913;51.992;9.228;2023-02-28T16:11:34;8.05;;;7.25;;
21503;SDS011;10913;51.992;9.228;2023-02-28T16:14:03;5.13;;;4.10;;
21503;SDS011;10913;51.992;9.228;2023-02-28T16:16:29;5.82;;;4.80;;
21503;SDS011;10913;51.992;9.228;2023-02-28T16:18:56;5.43;;;4.88;;
21503;SDS011;10913;51.992;9.228;2023-02-28T16:21:21;3.80;;;3.40;;
21503;SDS011;10913;51.992;9.228;2023-02-28T16:23:47;3.55;;;2.90;;
21503;SDS011;10913;51.992;9.228;2023-02-28T16:26:21;6.00;;;4.70;;
21503;SDS011;10913;51.992;9.228;2023-02-28T16:28:48;9.13;;;8.25;;
21503;SDS011;10913;51.992;9.228;2023-02-28T16:31:13;12.30;;;11.15;;
21503;SDS011;10913;51.992;9.228;2023-02-28T16:33:43;6.68;;;6.07;;
21503;SDS011;10913;51.992;9.228;2023-02-28T16:36:16;4.25;;;3.85;;
21503;SDS011;10913;51.992;9.228;2023-02-28T16:38:44;5.28;;;3.72;;
21503;SDS011;10913;51.992;9.228;2023-02-28T16:41:12;5.30;;;3.17;;
21503;SDS011;10913;51.992;9.228;2023-02-28T16:43:42;4.72;;;3.28;;
21503;SDS011;10913;51.992;9.228;2023-02-28T16:46:10;4.10;;;3.00;;
21503;SDS011;10913;51.992;9.228;2023-02-28T16:48:36;3.85;;;3.10;;
21503;SDS011;10913;51.992;9.228;2023-02-28T16:51:02;4.13;;;2.88;;
21503;SDS011;10913;51.992;9.228;2023-02-28T16:53:29;4.10;;;2.60;;
21503;SDS011;10913;51.992;9.228;2023-02-28T16:55:55;3.00;;;2.60;;
21503;SDS011;10913;51.992;9.228;2023-02-28T16:58:20;3.83;;;2.83;;
21503;SDS011;10913;51.992;9.228;2023-02-28T17:00:46;3.67;;;3.22;;
21503;SDS011;10913;51.992;9.228;2023-02-28T17:03:19;4.07;;;3.67;;
21503;SDS011;10913;51.992;9.228;2023-02-28T17:05:47;5.07;;;3.92;;
21503;SDS011;10913;51.992;9.228;2023-02-28T17:08:13;4.88;;;3.22;;
21503;SDS011;10913;51.992;9.228;2023-02-28T17:10:38;5.60;;;4.00;;
21503;SDS011;10913;51.992;9.228;2023-02-28T17:13:03;5.00;;;3.33;;
21503;SDS011;10913;51.992;9.228;2023-02-28T17:15:32;4.20;;;3.10;;
21503;SDS011;10913;51.992;9.228;2023-02-28T17:17:58;3.85;;;3.15;;
21503;SDS011;10913;51.992;9.228;2023-02-28T17:20:23;4.72;;;3.40;;
21503;SDS011;10913;51.992;9.228;2023-02-28T17:22:49;3.95;;;3.40;;
21503;SDS011;10913;51.992;9.228;2023-02-28T17:25:15;4.07;;;3.38;;
21503;SDS011;10913;51.992;9.228;2023-02-28T17:27:41;4.18;;;3.13;;
21503;SDS011;10913;51.992;9.228;2023-02-28T17:30:13;4.20;;;3.25;;
21503;SDS011;10913;51.992;9.228;2023-02-28T17:32:39;4.00;;;3.08;;
21503;SDS011;10913;51.992;9.228;2023-02-28T17:35:05;4.20;;;2.90;;
21503;SDS011;10913;51.992;9.228;2023-02-28T17:37:31;3.85;;;2.90;;
21503;SDS011;10913;51.992;9.228;2023-02-28T17:39:56;4.40;;;3.28;;
21503;SDS011;10913;51.992;9.228;2023-02-28T17:42:21;4.03;;;3.20;;